sensor_id;sensor_type;location;lat;lon;timestamp;P1;durP1;ratioP1;P2;durP2;ratioP2
32329;SDS011;18807;52.434;13.238;2023-03-23T00:04:53;3.22;;;1.77;;
32329;SDS011;18807;52.434;13.238;2023-03-23T00:12:27;2.42;;;1.90;;
32329;SDS011;18807;52.434;13.238;2023-03-23T00:20:06;3.92;;;2.03;;
32329;SDS011;18807;52.434;13.238;2023-03-23T00:27:41;4.53;;;2.17;;
32329;SDS011;18807;52.434;13.238;2023-03-23T00:35:16;2.28;;;2.05;;
32329;SDS011;18807;52.434;13.238;2023-03-23T00:42:50;2.15;;;1.60;;
32329;SDS011;18807;52.434;13.238;2023-03-23T00:50:25;2.30;;;1.90;;
32329;SDS011;18807;52.434;13.238;2023-03-23T00:57:59;2.75;;;1.90;;
32329;SDS011;18807;52.434;13.238;2023-03-23T01:05:35;6.57;;;2.08;;
32329;SDS011;18807;52.434;13.238;2023-03-23T01:13:08;3.50;;;2.28;;
32329;SDS011;18807;52.434;13.238;2023-03-23T01:20:43;2.97;;;1.70;;
32329;SDS011;18807;52.434;13.238;2023-03-23T01:28:16;2.40;;;1.73;;
32329;SDS011;18807;52.434;13.238;2023-03-23T01:35:50;3.60;;;2.00;;
32329;SDS011;18807;52.434;13.238;2023-03-23T01:43:23;1.97;;;1.77;;
32329;SDS011;18807;52.434;13.238;2023-03-23T01:50:58;2.38;;;1.98;;
32329;SDS011;18807;52.434;13.238;2023-03-23T01:58:35;3.47;;;1.90;;
32329;SDS011;18807;52.434;13.238;2023-03-23T02:06:11;2.95;;;1.80;;
32329;SDS011;18807;52.434;13.238;2023-03-23T02:13:44;2.47;;;2.20;;
32329;SDS011;18807;52.434;13.238;2023-03-23T02:29:32;7.90;;;2.35;;
32329;SDS011;18807;52.434;13.238;2023-03-23T02:37:28;2.60;;;2.00;;
32329;SDS011;18807;52.434;13.238;2023-03-23T02:45:10;2.92;;;1.83;;
32329;SDS011;18807;52.434;13.238;2023-03-23T02:52:46;3.65;;;1.92;;
32329;SDS011;18807;52.434;13.238;2023-03-23T03:00:22;2.63;;;2.05;;
32329;SDS011;18807;52.434;13.238;2023-03-23T03:08:00;3.83;;;2.33;;
32329;SDS011;18807;52.434;13.238;2023-03-23T03:15:40;2.97;;;2.15;;
32329;SDS011;18807;52.434;13.238;2023-03-23T03:23:18;3.58;;;2.33;;
32329;SDS011;18807;52.434;13.238;2023-03-23T03:30:54;3.28;;;2.80;;
32329;SDS011;18807;52.434;13.238;2023-03-23T03:38:41;3.83;;;2.38;;
32329;SDS011;18807;52.434;13.238;2023-03-23T03:46:15;2.50;;;2.30;;
32329;SDS011;18807;52.434;13.238;2023-03-23T03:53:49;2.55;;;1.90;;
32329;SDS011;18807;52.434;13.238;2023-03-23T04:01:22;2.55;;;1.90;;
32329;SDS011;18807;52.434;13.238;2023-03-23T04:08:57;2.38;;;2.17;;
32329;SDS011;18807;52.434;13.238;2023-03-23T04:16:32;3.72;;;2.33;;
32329;SDS011;18807;52.434;13.238;2023-03-23T04:24:07;5.07;;;2.28;;
32329;SDS011;18807;52.434;13.238;2023-03-23T04:31:40;3.38;;;1.90;;
32329;SDS011;18807;52.434;13.238;2023-03-23T04:39:17;3.47;;;2.60;;
32329;SDS011;18807;52.434;13.238;2023-03-23T04:46:50;3.67;;;1.83;;
32329;SDS011;18807;52.434;13.238;2023-03-23T04:54:26;2.00;;;1.80;;
32329;SDS011;18807;52.434;13.238;2023-03-23T05:02:00;2.58;;;2.00;;
32329;SDS011;18807;52.434;13.238;2023-03-23T05:09:35;2.10;;;1.90;;
32329;SDS011;18807;52.434;13.238;2023-03-23T05:17:07;2.90;;;2.10;;
32329;SDS011;18807;52.434;13.238;2023-03-23T05:24:42;4.22;;;2.33;;
32329;SDS011;18807;52.434;13.238;2023-03-23T05:32:15;4.07;;;2.27;;
32329;SDS011;18807;52.434;13.238;2023-03-23T05:39:51;2.78;;;1.90;;
32329;SDS011;18807;52.434;13.238;2023-03-23T05:47:26;2.78;;;1.77;;
32329;SDS011;18807;52.434;13.238;2023-03-23T05:55:01;3.03;;;2.45;;
32329;SDS011;18807;52.434;13.238;2023-03-23T06:02:36;4.70;;;2.20;;
32329;SDS011;18807;52.434;13.238;2023-03-23T06:10:10;2.53;;;1.50;;
32329;SDS011;18807;52.434;13.238;2023-03-23T06:17:43;2.53;;;1.80;;
32329;SDS011;18807;52.434;13.238;2023-03-23T06:25:17;3.22;;;2.00;;
32329;SDS011;18807;52.434;13.238;2023-03-23T06:40:25;6.35;;;3.42;;
32329;SDS011;18807;52.434;13.238;2023-03-23T06:47:59;3.75;;;1.60;;
32329;SDS011;18807;52.434;13.238;2023-03-23T06:55:34;4.35;;;1.80;;
32329;SDS011;18807;52.434;13.238;2023-03-23T07:03:08;3.92;;;1.52;;
32329;SDS011;18807;52.434;13.238;2023-03-23T07:10:42;3.55;;;2.40;;
32329;SDS011;18807;52.434;13.238;2023-03-23T07:18:15;3.60;;;2.93;;
32329;SDS011;18807;52.434;13.238;2023-03-23T07:25:51;2.55;;;1.40;;
32329;SDS011;18807;52.434;13.238;2023-03-23T07:33:25;3.30;;;2.17;;
32329;SDS011;18807;52.434;13.238;2023-03-23T07:41:00;7.77;;;1.60;;
32329;SDS011;18807;52.434;13.238;2023-03-23T07:56:09;5.75;;;2.90;;
32329;SDS011;18807;52.434;13.238;2023-03-23T08:03:41;2.90;;;1.98;;
32329;SDS011;18807;52.434;13.238;2023-03-23T08:11:17;2.92;;;2.13;;
32329;SDS011;18807;52.434;13.238;2023-03-23T08:18:51;3.38;;;2.10;;
32329;SDS011;18807;52.434;13.238;2023-03-23T08:26:26;4.88;;;2.60;;
32329;SDS011;18807;52.434;13.238;2023-03-23T08:33:59;4.85;;;2.40;;
32329;SDS011;18807;52.434;13.238;2023-03-23T08:41:34;3.70;;;2.42;;
32329;SDS011;18807;52.434;13.238;2023-03-23T08:49:07;3.33;;;1.73;;
32329;SDS011;18807;52.434;13.238;2023-03-23T08:56:41;3.00;;;2.47;;
32329;SDS011;18807;52.434;13.238;2023-03-23T09:04:15;2.90;;;2.40;;
32329;SDS011;18807;52.434;13.238;2023-03-23T09:11:49;1.85;;;1.50;;
32329;SDS011;18807;52.434;13.238;2023-03-23T09:19:22;2.80;;;2.10;;
32329;SDS011;18807;52.434;13.238;2023-03-23T09:26:56;2.05;;;1.55;;
32329;SDS011;18807;52.434;13.238;2023-03-23T09:34:30;2.80;;;1.90;;
32329;SDS011;18807;52.434;13.238;2023-03-23T09:42:15;4.10;;;2.13;;
32329;SDS011;18807;52.434;13.238;2023-03-23T09:49:57;3.00;;;1.52;;
32329;SDS011;18807;52.434;13.238;2023-03-23T09:57:34;3.83;;;1.50;;
32329;SDS011;18807;52.434;13.238;2023-03-23T10:13:06;1.73;;;1.25;;
32329;SDS011;18807;52.434;13.238;2023-03-23T10:20:48;1.77;;;1.40;;
32329;SDS011;18807;52.434;13.238;2023-03-23T10:28:34;1.70;;;1.20;;
32329;SDS011;18807;52.434;13.238;2023-03-23T10:36:10;4.57;;;1.25;;
32329;SDS011;18807;52.434;13.238;2023-03-23T10:43:48;3.13;;;1.27;;
32329;SDS011;18807;52.434;13.238;2023-03-23T10:51:22;2.42;;;1.40;;
32329;SDS011;18807;52.434;13.238;2023-03-23T10:59:10;3.30;;;1.73;;
32329;SDS011;18807;52.434;13.238;2023-03-23T11:06:46;3.75;;;1.42;;
32329;SDS011;18807;52.434;13.238;2023-03-23T11:14:26;2.20;;;1.40;;
32329;SDS011;18807;52.434;13.238;2023-03-23T11:22:04;2.40;;;1.60;;
32329;SDS011;18807;52.434;13.238;2023-03-23T11:29:47;3.53;;;1.10;;
32329;SDS011;18807;52.434;13.238;2023-03-23T11:37:25;4.15;;;1.10;;
32329;SDS011;18807;52.434;13.238;2023-03-23T11:45:14;1.55;;;1.20;;
32329;SDS011;18807;52.434;13.238;2023-03-23T11:52:51;2.80;;;1.17;;
32329;SDS011;18807;52.434;13.238;2023-03-23T12:00:31;3.13;;;1.63;;
32329;SDS011;18807;52.434;13.238;2023-03-23T12:08:17;2.08;;;1.17;;
32329;SDS011;18807;52.434;13.238;2023-03-23T12:16:06;1.75;;;1.15;;
32329;SDS011;18807;52.434;13.238;2023-03-23T12:23:50;2.17;;;1.27;;
32329;SDS011;18807;52.434;13.238;2023-03-23T12:31:36;2.03;;;1.20;;
32329;SDS011;18807;52.434;13.238;2023-03-23T12:47:34;1.70;;;1.20;;
32329;SDS011;18807;52.434;13.238;2023-03-23T12:55:14;1.58;;;1.10;;
32329;SDS011;18807;52.434;13.238;2023-03-23T13:02:53;2.53;;;1.23;;
32329;SDS011;18807;52.434;13.238;2023-03-23T13:10:32;3.70;;;1.60;;
32329;SDS011;18807;52.434;13.238;2023-03-23T13:18:12;2.78;;;1.05;;
32329;SDS011;18807;52.434;13.238;2023-03-23T13:25:54;2.38;;;1.40;;
32329;SDS011;18807;52.434;13.238;2023-03-23T13:33:34;1.30;;;0.82;;
32329;SDS011;18807;52.434;13.238;2023-03-23T13:41:08;4.55;;;1.52;;
32329;SDS011;18807;52.434;13.238;2023-03-23T13:48:47;3.92;;;1.40;;
32329;SDS011;18807;52.434;13.238;2023-03-23T13:56:34;2.30;;;1.20;;
32329;SDS011;18807;52.434;13.238;2023-03-23T14:04:13;4.18;;;1.00;;
32329;SDS011;18807;52.434;13.238;2023-03-23T14:11:49;2.30;;;0.98;;
32329;SDS011;18807;52.434;13.238;2023-03-23T14:19:29;2.63;;;1.00;;
32329;SDS011;18807;52.434;13.238;2023-03-23T14:27:22;3.08;;;1.08;;
32329;SDS011;18807;52.434;13.238;2023-03-23T14:34:57;4.53;;;1.17;;
32329;SDS011;18807;52.434;13.238;2023-03-23T14:42:32;3.05;;;1.20;;
32329;SDS011;18807;52.434;13.238;2023-03-23T14:50:22;1.80;;;0.98;;
32329;SDS011;18807;52.434;13.238;2023-03-23T14:58:05;1.67;;;1.05;;
32329;SDS011;18807;52.434;13.238;2023-03-23T15:05:42;4.05;;;1.40;;
32329;SDS011;18807;52.434;13.238;2023-03-23T15:13:18;2.22;;;1.40;;
32329;SDS011;18807;52.434;13.238;2023-03-23T15:20:52;1.55;;;1.10;;
32329;SDS011;18807;52.434;13.238;2023-03-23T15:28:29;5.75;;;1.55;;
32329;SDS011;18807;52.434;13.238;2023-03-23T15:36:07;2.40;;;1.13;;
32329;SDS011;18807;52.434;13.238;2023-03-23T15:43:48;3.75;;;0.85;;
32329;SDS011;18807;52.434;13.238;2023-03-23T15:51:24;2.53;;;0.80;;
32329;SDS011;18807;52.434;13.238;2023-03-23T15:58:58;2.95;;;0.90;;
32329;SDS011;18807;52.434;13.238;2023-03-23T16:06:35;3.55;;;1.00;;
32329;SDS011;18807;52.434;13.238;2023-03-23T16:14:09;2.75;;;1.10;;
32329;SDS011;18807;52.434;13.238;2023-03-23T16:21:45;8.60;;;1.50;;
32329;SDS011;18807;52.434;13.238;2023-03-23T16:29:19;1.90;;;0.90;;
32329;SDS011;18807;52.434;13.238;2023-03-23T16:37:14;3.10;;;1.00;;
32329;SDS011;18807;52.434;13.238;2023-03-23T16:44:49;2.10;;;0.80;;
32329;SDS011;18807;52.434;13.238;2023-03-23T16:52:24;1.70;;;1.05;;
32329;SDS011;18807;52.434;13.238;2023-03-23T16:59:58;3.28;;;1.25;;
32329;SDS011;18807;52.434;13.238;2023-03-23T17:07:33;6.53;;;1.45;;
32329;SDS011;18807;52.434;13.238;2023-03-23T17:15:07;2.33;;;1.25;;
32329;SDS011;18807;52.434;13.238;2023-03-23T17:22:44;2.15;;;1.08;;
32329;SDS011;18807;52.434;13.238;2023-03-23T17:30:19;2.50;;;0.98;;
32329;SDS011;18807;52.434;13.238;2023-03-23T17:37:55;4.03;;;1.35;;
32329;SDS011;18807;52.434;13.238;2023-03-23T17:45:29;3.47;;;1.08;;
32329;SDS011;18807;52.434;13.238;2023-03-23T17:53:04;4.10;;;1.15;;
32329;SDS011;18807;52.434;13.238;2023-03-23T18:00:38;1.75;;;1.17;;
32329;SDS011;18807;52.434;13.238;2023-03-23T18:08:14;3.60;;;1.57;;
32329;SDS011;18807;52.434;13.238;2023-03-23T18:15:48;4.10;;;1.40;;
32329;SDS011;18807;52.434;13.238;2023-03-23T18:23:24;5.72;;;1.55;;
32329;SDS011;18807;52.434;13.238;2023-03-23T18:31:01;4.40;;;1.92;;
32329;SDS011;18807;52.434;13.238;2023-03-23T18:38:37;3.95;;;1.77;;
32329;SDS011;18807;52.434;13.238;2023-03-23T18:46:12;2.67;;;1.42;;
32329;SDS011;18807;52.434;13.238;2023-03-23T18:53:48;3.90;;;1.33;;
32329;SDS011;18807;52.434;13.238;2023-03-23T19:01:22;4.72;;;1.70;;
32329;SDS011;18807;52.434;13.238;2023-03-23T19:08:58;2.00;;;1.40;;
32329;SDS011;18807;52.434;13.238;2023-03-23T19:16:33;3.47;;;2.40;;
32329;SDS011;18807;52.434;13.238;2023-03-23T19:24:09;7.13;;;3.45;;
32329;SDS011;18807;52.434;13.238;2023-03-23T19:31:43;5.90;;;2.80;;
32329;SDS011;18807;52.434;13.238;2023-03-23T19:39:20;4.22;;;2.40;;
32329;SDS011;18807;52.434;13.238;2023-03-23T19:46:54;7.57;;;3.35;;
32329;SDS011;18807;52.434;13.238;2023-03-23T19:54:30;4.50;;;3.25;;
32329;SDS011;18807;52.434;13.238;2023-03-23T20:02:04;6.32;;;4.13;;
32329;SDS011;18807;52.434;13.238;2023-03-23T20:09:39;7.77;;;5.13;;
32329;SDS011;18807;52.434;13.238;2023-03-23T20:17:13;8.07;;;4.35;;
32329;SDS011;18807;52.434;13.238;2023-03-23T20:24:49;7.60;;;4.78;;
32329;SDS011;18807;52.434;13.238;2023-03-23T20:32:23;7.18;;;4.47;;
32329;SDS011;18807;52.434;13.238;2023-03-23T20:40:03;5.28;;;3.83;;
32329;SDS011;18807;52.434;13.238;2023-03-23T20:47:38;4.53;;;3.88;;
32329;SDS011;18807;52.434;13.238;2023-03-23T20:55:14;5.15;;;4.40;;
32329;SDS011;18807;52.434;13.238;2023-03-23T21:02:49;7.82;;;5.10;;
32329;SDS011;18807;52.434;13.238;2023-03-23T21:10:26;5.28;;;3.88;;
32329;SDS011;18807;52.434;13.238;2023-03-23T21:18:00;6.43;;;3.55;;
32329;SDS011;18807;52.434;13.238;2023-03-23T21:25:36;5.37;;;3.73;;
32329;SDS011;18807;52.434;13.238;2023-03-23T21:33:10;7.35;;;3.40;;
32329;SDS011;18807;52.434;13.238;2023-03-23T21:40:47;5.80;;;3.45;;
32329;SDS011;18807;52.434;13.238;2023-03-23T21:48:21;4.55;;;2.85;;
32329;SDS011;18807;52.434;13.238;2023-03-23T21:55:57;4.18;;;3.28;;
32329;SDS011;18807;52.434;13.238;2023-03-23T22:03:31;6.75;;;3.28;;
32329;SDS011;18807;52.434;13.238;2023-03-23T22:11:09;4.68;;;2.92;;
32329;SDS011;18807;52.434;13.238;2023-03-23T22:18:45;6.47;;;3.78;;
32329;SDS011;18807;52.434;13.238;2023-03-23T22:26:21;9.93;;;4.22;;
32329;SDS011;18807;52.434;13.238;2023-03-23T22:33:56;5.32;;;4.38;;
32329;SDS011;18807;52.434;13.238;2023-03-23T22:41:32;4.73;;;3.57;;
32329;SDS011;18807;52.434;13.238;2023-03-23T22:49:08;4.60;;;3.30;;
32329;SDS011;18807;52.434;13.238;2023-03-23T22:56:44;5.23;;;3.10;;
32329;SDS011;18807;52.434;13.238;2023-03-23T23:04:18;6.15;;;4.03;;
32329;SDS011;18807;52.434;13.238;2023-03-23T23:11:53;4.97;;;3.83;;
32329;SDS011;18807;52.434;13.238;2023-03-23T23:19:27;7.18;;;4.63;;
32329;SDS011;18807;52.434;13.238;2023-03-23T23:27:03;8.27;;;5.07;;
32329;SDS011;18807;52.434;13.238;2023-03-23T23:34:37;8.30;;;5.28;;
32329;SDS011;18807;52.434;13.238;2023-03-23T23:42:12;10.02;;;3.85;;
32329;SDS011;18807;52.434;13.238;2023-03-23T23:49:46;6.85;;;3.67;;
32329;SDS011;18807;52.434;13.238;2023-03-23T23:57:22;4.35;;;3.38;;
